sensor_id;sensor_type;location;lat;lon;timestamp;temperature;humidity
11764;DHT22;5939;56.522;14.950;2023-04-01T00:00:54;3.30;99.90
11764;DHT22;5939;56.522;14.950;2023-04-01T00:03:22;3.30;99.90
11764;DHT22;5939;56.522;14.950;2023-04-01T00:05:48;3.30;99.90
11764;DHT22;5939;56.522;14.950;2023-04-01T00:08:14;3.30;99.90
11764;DHT22;5939;56.522;14.950;2023-04-01T00:10:40;3.30;99.90
11764;DHT22;5939;56.522;14.950;2023-04-01T00:13:06;3.30;99.90
11764;DHT22;5939;56.522;14.950;2023-04-01T00:15:33;3.20;99.90
11764;DHT22;5939;56.522;14.950;2023-04-01T00:17:59;3.20;99.90
11764;DHT22;5939;56.522;14.950;2023-04-01T00:20:25;3.20;99.90
11764;DHT22;5939;56.522;14.950;2023-04-01T00:22:51;3.20;99.90
11764;DHT22;5939;56.522;14.950;2023-04-01T00:25:17;3.20;99.90
11764;DHT22;5939;56.522;14.950;2023-04-01T00:27:44;3.20;99.90
11764;DHT22;5939;56.522;14.950;2023-04-01T00:30:10;3.20;99.90
11764;DHT22;5939;56.522;14.950;2023-04-01T00:32:36;3.20;99.90
11764;DHT22;5939;56.522;14.950;2023-04-01T00:35:02;3.20;99.90
11764;DHT22;5939;56.522;14.950;2023-04-01T00:37:28;3.20;99.90
11764;DHT22;5939;56.522;14.950;2023-04-01T00:39:54;3.20;99.90
11764;DHT22;5939;56.522;14.950;2023-04-01T00:42:20;3.20;99.90
11764;DHT22;5939;56.522;14.950;2023-04-01T00:44:54;3.20;99.90
11764;DHT22;5939;56.522;14.950;2023-04-01T00:47:21;3.20;99.90
11764;DHT22;5939;56.522;14.950;2023-04-01T00:49:51;3.10;99.90
11764;DHT22;5939;56.522;14.950;2023-04-01T00:52:23;3.10;99.90
11764;DHT22;5939;56.522;14.950;2023-04-01T00:54:53;3.10;99.90
11764;DHT22;5939;56.522;14.950;2023-04-01T00:57:32;3.10;99.90
11764;DHT22;5939;56.522;14.950;2023-04-01T01:00:00;3.10;99.90
11764;DHT22;5939;56.522;14.950;2023-04-01T01:02:25;3.10;99.90
11764;DHT22;5939;56.522;14.950;2023-04-01T01:04:51;3.10;99.90
11764;DHT22;5939;56.522;14.950;2023-04-01T01:07:51;3.10;99.90
11764;DHT22;5939;56.522;14.950;2023-04-01T01:10:23;3.10;99.90
11764;DHT22;5939;56.522;14.950;2023-04-01T01:15:26;3.10;99.90
11764;DHT22;5939;56.522;14.950;2023-04-01T01:32:55;3.00;99.90
11764;DHT22;5939;56.522;14.950;2023-04-01T01:37:45;3.00;99.90
11764;DHT22;5939;56.522;14.950;2023-04-01T01:40:13;3.00;99.90
11764;DHT22;5939;56.522;14.950;2023-04-01T01:42:45;3.00;99.90
11764;DHT22;5939;56.522;14.950;2023-04-01T01:45:14;3.00;99.90
11764;DHT22;5939;56.522;14.950;2023-04-01T01:47:43;3.00;99.90
11764;DHT22;5939;56.522;14.950;2023-04-01T01:50:11;3.00;99.90
11764;DHT22;5939;56.522;14.950;2023-04-01T01:52:37;3.00;99.90
11764;DHT22;5939;56.522;14.950;2023-04-01T01:55:22;3.00;99.90
11764;DHT22;5939;56.522;14.950;2023-04-01T01:57:48;3.00;99.90
11764;DHT22;5939;56.522;14.950;2023-04-01T02:00:16;3.00;99.90
11764;DHT22;5939;56.522;14.950;2023-04-01T02:02:44;3.00;99.90
11764;DHT22;5939;56.522;14.950;2023-04-01T02:05:20;3.00;99.90
11764;DHT22;5939;56.522;14.950;2023-04-01T02:07:51;3.00;99.90
11764;DHT22;5939;56.522;14.950;2023-04-01T02:10:21;3.00;99.90
11764;DHT22;5939;56.522;14.950;2023-04-01T02:12:48;2.90;99.90
11764;DHT22;5939;56.522;14.950;2023-04-01T02:15:15;2.90;99.90
11764;DHT22;5939;56.522;14.950;2023-04-01T02:17:45;2.90;99.90
11764;DHT22;5939;56.522;14.950;2023-04-01T02:20:21;3.00;99.90
11764;DHT22;5939;56.522;14.950;2023-04-01T02:22:50;2.90;99.90
11764;DHT22;5939;56.522;14.950;2023-04-01T02:25:35;2.90;99.90
11764;DHT22;5939;56.522;14.950;2023-04-01T02:28:04;2.40;99.90
11764;DHT22;5939;56.522;14.950;2023-04-01T02:30:32;2.90;99.90
11764;DHT22;5939;56.522;14.950;2023-04-01T02:32:59;2.90;99.90
11764;DHT22;5939;56.522;14.950;2023-04-01T02:35:25;2.90;99.90
11764;DHT22;5939;56.522;14.950;2023-04-01T02:37:52;2.90;99.90
11764;DHT22;5939;56.522;14.950;2023-04-01T02:40:19;2.90;99.90
11764;DHT22;5939;56.522;14.950;2023-04-01T02:42:44;2.90;99.90
11764;DHT22;5939;56.522;14.950;2023-04-01T02:45:11;2.80;99.90
11764;DHT22;5939;56.522;14.950;2023-04-01T02:47:37;2.80;99.90
11764;DHT22;5939;56.522;14.950;2023-04-01T02:50:04;2.80;99.90
11764;DHT22;5939;56.522;14.950;2023-04-01T02:52:30;2.80;99.90
11764;DHT22;5939;56.522;14.950;2023-04-01T02:54:57;2.80;99.90
11764;DHT22;5939;56.522;14.950;2023-04-01T02:57:23;2.80;99.90
11764;DHT22;5939;56.522;14.950;2023-04-01T02:59:49;2.80;99.90
11764;DHT22;5939;56.522;14.950;2023-04-01T03:02:16;2.80;99.90
11764;DHT22;5939;56.522;14.950;2023-04-01T03:04:41;2.80;99.90
11764;DHT22;5939;56.522;14.950;2023-04-01T03:07:07;2.80;99.90
11764;DHT22;5939;56.522;14.950;2023-04-01T03:09:35;2.80;99.90
11764;DHT22;5939;56.522;14.950;2023-04-01T03:12:02;2.70;99.90
11764;DHT22;5939;56.522;14.950;2023-04-01T03:14:27;2.70;99.90
11764;DHT22;5939;56.522;14.950;2023-04-01T03:16:53;2.70;99.90
11764;DHT22;5939;56.522;14.950;2023-04-01T03:19:18;2.70;99.90
11764;DHT22;5939;56.522;14.950;2023-04-01T03:21:44;2.70;99.90
11764;DHT22;5939;56.522;14.950;2023-04-01T03:24:10;2.70;99.90
11764;DHT22;5939;56.522;14.950;2023-04-01T03:26:36;2.70;99.90
11764;DHT22;5939;56.522;14.950;2023-04-01T03:29:01;2.70;99.90
11764;DHT22;5939;56.522;14.950;2023-04-01T03:31:27;2.70;99.90
11764;DHT22;5939;56.522;14.950;2023-04-01T03:33:53;2.60;99.90
11764;DHT22;5939;56.522;14.950;2023-04-01T03:36:18;2.70;99.90
11764;DHT22;5939;56.522;14.950;2023-04-01T03:38:44;2.60;99.90
11764;DHT22;5939;56.522;14.950;2023-04-01T03:41:17;2.60;99.90
11764;DHT22;5939;56.522;14.950;2023-04-01T03:43:43;2.60;99.90
11764;DHT22;5939;56.522;14.950;2023-04-01T03:46:09;2.60;99.90
11764;DHT22;5939;56.522;14.950;2023-04-01T03:48:35;2.60;99.90
11764;DHT22;5939;56.522;14.950;2023-04-01T03:51:01;2.60;99.90
11764;DHT22;5939;56.522;14.950;2023-04-01T03:53:26;2.60;99.90
11764;DHT22;5939;56.522;14.950;2023-04-01T03:55:52;2.50;99.90
11764;DHT22;5939;56.522;14.950;2023-04-01T03:58:19;2.50;99.90
11764;DHT22;5939;56.522;14.950;2023-04-01T04:00:45;2.50;99.90
11764;DHT22;5939;56.522;14.950;2023-04-01T04:03:11;2.50;99.90
11764;DHT22;5939;56.522;14.950;2023-04-01T04:05:37;2.50;99.90
11764;DHT22;5939;56.522;14.950;2023-04-01T04:08:03;2.50;99.90
11764;DHT22;5939;56.522;14.950;2023-04-01T04:10:28;2.50;99.90
11764;DHT22;5939;56.522;14.950;2023-04-01T04:12:54;2.50;99.90
11764;DHT22;5939;56.522;14.950;2023-04-01T04:15:20;2.50;99.90
11764;DHT22;5939;56.522;14.950;2023-04-01T04:17:46;2.50;99.90
11764;DHT22;5939;56.522;14.950;2023-04-01T04:20:12;2.40;99.90
11764;DHT22;5939;56.522;14.950;2023-04-01T04:22:39;2.40;99.90
11764;DHT22;5939;56.522;14.950;2023-04-01T04:25:05;2.40;99.90
11764;DHT22;5939;56.522;14.950;2023-04-01T04:27:31;2.40;99.90
11764;DHT22;5939;56.522;14.950;2023-04-01T04:29:56;2.40;99.90
11764;DHT22;5939;56.522;14.950;2023-04-01T04:32:22;2.40;99.90
11764;DHT22;5939;56.522;14.950;2023-04-01T04:34:48;2.40;99.90
11764;DHT22;5939;56.522;14.950;2023-04-01T04:37:13;2.40;99.90
11764;DHT22;5939;56.522;14.950;2023-04-01T04:39:39;2.40;99.90
11764;DHT22;5939;56.522;14.950;2023-04-01T04:42:05;2.30;99.90
11764;DHT22;5939;56.522;14.950;2023-04-01T04:44:31;2.30;99.90
11764;DHT22;5939;56.522;14.950;2023-04-01T04:46:56;2.30;99.90
11764;DHT22;5939;56.522;14.950;2023-04-01T04:49:22;2.30;99.90
11764;DHT22;5939;56.522;14.950;2023-04-01T04:51:48;2.30;99.90
11764;DHT22;5939;56.522;14.950;2023-04-01T04:54:13;2.30;99.90
11764;DHT22;5939;56.522;14.950;2023-04-01T04:56:39;2.30;99.90
11764;DHT22;5939;56.522;14.950;2023-04-01T04:59:05;2.30;99.90
11764;DHT22;5939;56.522;14.950;2023-04-01T05:01:31;2.30;99.90
11764;DHT22;5939;56.522;14.950;2023-04-01T05:03:58;2.20;99.90
11764;DHT22;5939;56.522;14.950;2023-04-01T05:06:24;2.20;99.90
11764;DHT22;5939;56.522;14.950;2023-04-01T05:08:51;2.20;99.90
11764;DHT22;5939;56.522;14.950;2023-04-01T05:11:18;2.20;99.90
11764;DHT22;5939;56.522;14.950;2023-04-01T05:13:44;2.20;99.90
11764;DHT22;5939;56.522;14.950;2023-04-01T05:16:12;2.20;99.90
11764;DHT22;5939;56.522;14.950;2023-04-01T05:18:38;2.20;99.90
11764;DHT22;5939;56.522;14.950;2023-04-01T05:21:06;2.20;99.90
11764;DHT22;5939;56.522;14.950;2023-04-01T05:23:32;2.20;99.90
11764;DHT22;5939;56.522;14.950;2023-04-01T05:25:58;2.20;99.90
11764;DHT22;5939;56.522;14.950;2023-04-01T05:28:24;2.10;99.90
11764;DHT22;5939;56.522;14.950;2023-04-01T05:30:50;2.10;99.90
11764;DHT22;5939;56.522;14.950;2023-04-01T05:33:15;2.10;99.90
11764;DHT22;5939;56.522;14.950;2023-04-01T05:35:41;2.20;99.90
11764;DHT22;5939;56.522;14.950;2023-04-01T05:38:07;2.20;99.90
11764;DHT22;5939;56.522;14.950;2023-04-01T05:40:33;2.20;99.90
11764;DHT22;5939;56.522;14.950;2023-04-01T05:42:59;2.20;99.90
11764;DHT22;5939;56.522;14.950;2023-04-01T05:45:26;2.20;99.90
11764;DHT22;5939;56.522;14.950;2023-04-01T05:47:51;2.20;99.90
11764;DHT22;5939;56.522;14.950;2023-04-01T05:50:17;2.20;99.90
11764;DHT22;5939;56.522;14.950;2023-04-01T05:52:43;2.20;99.90
11764;DHT22;5939;56.522;14.950;2023-04-01T05:55:09;2.20;99.90
11764;DHT22;5939;56.522;14.950;2023-04-01T05:57:35;2.30;99.90
11764;DHT22;5939;56.522;14.950;2023-04-01T06:00:02;2.30;99.90
11764;DHT22;5939;56.522;14.950;2023-04-01T06:02:27;2.30;99.90
11764;DHT22;5939;56.522;14.950;2023-04-01T06:07:38;2.40;99.90
11764;DHT22;5939;56.522;14.950;2023-04-01T06:10:19;2.40;99.90
11764;DHT22;5939;56.522;14.950;2023-04-01T06:15:36;2.50;99.90
11764;DHT22;5939;56.522;14.950;2023-04-01T06:28:45;2.80;99.90
11764;DHT22;5939;56.522;14.950;2023-04-01T06:31:34;2.90;99.90
11764;DHT22;5939;56.522;14.950;2023-04-01T06:39:53;3.10;99.90
11764;DHT22;5939;56.522;14.950;2023-04-01T06:42:48;3.20;99.90
11764;DHT22;5939;56.522;14.950;2023-04-01T06:45:40;3.30;99.90
11764;DHT22;5939;56.522;14.950;2023-04-01T06:53:31;3.50;99.90
11764;DHT22;5939;56.522;14.950;2023-04-01T06:56:03;3.60;99.90
11764;DHT22;5939;56.522;14.950;2023-04-01T06:58:36;3.70;99.90
11764;DHT22;5939;56.522;14.950;2023-04-01T07:01:06;3.80;99.90
11764;DHT22;5939;56.522;14.950;2023-04-01T07:06:26;4.00;99.90
11764;DHT22;5939;56.522;14.950;2023-04-01T07:08:53;4.10;99.90
11764;DHT22;5939;56.522;14.950;2023-04-01T07:11:25;4.10;99.90
11764;DHT22;5939;56.522;14.950;2023-04-01T07:16:36;4.30;99.90
11764;DHT22;5939;56.522;14.950;2023-04-01T07:19:12;4.40;99.90
11764;DHT22;5939;56.522;14.950;2023-04-01T07:21:46;4.50;99.90
11764;DHT22;5939;56.522;14.950;2023-04-01T07:24:37;4.60;99.90
11764;DHT22;5939;56.522;14.950;2023-04-01T07:27:08;4.70;99.90
11764;DHT22;5939;56.522;14.950;2023-04-01T07:29:34;4.80;99.90
11764;DHT22;5939;56.522;14.950;2023-04-01T07:35:28;4.90;99.90
11764;DHT22;5939;56.522;14.950;2023-04-01T07:38:15;5.10;99.90
11764;DHT22;5939;56.522;14.950;2023-04-01T07:51:29;5.50;99.90
11764;DHT22;5939;56.522;14.950;2023-04-01T07:59:43;5.70;99.90
11764;DHT22;5939;56.522;14.950;2023-04-01T08:10:57;6.10;99.90
11764;DHT22;5939;56.522;14.950;2023-04-01T08:16:47;6.30;99.90
11764;DHT22;5939;56.522;14.950;2023-04-01T08:22:16;6.40;99.90
11764;DHT22;5939;56.522;14.950;2023-04-01T08:24:46;6.50;99.90
11764;DHT22;5939;56.522;14.950;2023-04-01T08:27:28;6.60;99.90
11764;DHT22;5939;56.522;14.950;2023-04-01T08:32:44;6.80;99.90
11764;DHT22;5939;56.522;14.950;2023-04-01T08:35:26;6.90;99.90
11764;DHT22;5939;56.522;14.950;2023-04-01T08:37:55;7.00;99.90
11764;DHT22;5939;56.522;14.950;2023-04-01T08:52:24;7.50;99.90
11764;DHT22;5939;56.522;14.950;2023-04-01T08:55:19;7.50;99.90
11764;DHT22;5939;56.522;14.950;2023-04-01T09:24:56;8.50;99.90
11764;DHT22;5939;56.522;14.950;2023-04-01T09:33:41;8.70;99.90
11764;DHT22;5939;56.522;14.950;2023-04-01T09:36:24;8.80;99.90
11764;DHT22;5939;56.522;14.950;2023-04-01T09:38:57;8.80;99.90
11764;DHT22;5939;56.522;14.950;2023-04-01T09:41:32;8.90;99.90
11764;DHT22;5939;56.522;14.950;2023-04-01T10:03:12;9.40;99.90
11764;DHT22;5939;56.522;14.950;2023-04-01T10:23:22;9.70;99.90
11764;DHT22;5939;56.522;14.950;2023-04-01T10:28:34;9.80;99.90
11764;DHT22;5939;56.522;14.950;2023-04-01T10:31:20;10.00;99.90
11764;DHT22;5939;56.522;14.950;2023-04-01T10:40:31;10.20;99.90
11764;DHT22;5939;56.522;14.950;2023-04-01T10:51:58;10.30;99.90
11764;DHT22;5939;56.522;14.950;2023-04-01T10:54:47;10.40;99.90
11764;DHT22;5939;56.522;14.950;2023-04-01T11:03:39;10.60;99.90
11764;DHT22;5939;56.522;14.950;2023-04-01T11:12:33;10.70;99.90
11764;DHT22;5939;56.522;14.950;2023-04-01T11:23:45;11.20;99.90
11764;DHT22;5939;56.522;14.950;2023-04-01T11:34:56;11.10;99.90
11764;DHT22;5939;56.522;14.950;2023-04-01T11:37:54;11.10;99.90
11764;DHT22;5939;56.522;14.950;2023-04-01T11:43:49;11.20;99.90
11764;DHT22;5939;56.522;14.950;2023-04-01T11:46:37;11.30;99.90
11764;DHT22;5939;56.522;14.950;2023-04-01T12:11:35;11.40;99.90
11764;DHT22;5939;56.522;14.950;2023-04-01T12:17:56;11.40;99.90
11764;DHT22;5939;56.522;14.950;2023-04-01T12:22:53;11.30;99.90
11764;DHT22;5939;56.522;14.950;2023-04-01T12:34:05;11.10;99.90
11764;DHT22;5939;56.522;14.950;2023-04-01T12:45:35;10.90;99.90
11764;DHT22;5939;56.522;14.950;2023-04-01T12:51:17;10.80;99.90
11764;DHT22;5939;56.522;14.950;2023-04-01T13:11:31;9.20;99.90
11764;DHT22;5939;56.522;14.950;2023-04-01T13:14:14;10.20;99.90
11764;DHT22;5939;56.522;14.950;2023-04-01T13:16:57;10.10;99.90
11764;DHT22;5939;56.522;14.950;2023-04-01T13:19:40;10.10;99.90
11764;DHT22;5939;56.522;14.950;2023-04-01T13:25:26;9.90;99.90
11764;DHT22;5939;56.522;14.950;2023-04-01T13:33:27;9.70;99.90
11764;DHT22;5939;56.522;14.950;2023-04-01T13:42:21;9.60;99.90
11764;DHT22;5939;56.522;14.950;2023-04-01T13:45:00;9.50;99.90
11764;DHT22;5939;56.522;14.950;2023-04-01T13:56:12;9.30;99.90
11764;DHT22;5939;56.522;14.950;2023-04-01T13:59:07;9.30;99.90
11764;DHT22;5939;56.522;14.950;2023-04-01T14:09:48;9.00;99.90
11764;DHT22;5939;56.522;14.950;2023-04-01T14:12:29;9.00;99.90
11764;DHT22;5939;56.522;14.950;2023-04-01T14:32:56;8.60;99.90
11764;DHT22;5939;56.522;14.950;2023-04-01T14:35:34;8.50;99.90
11764;DHT22;5939;56.522;14.950;2023-04-01T14:38:33;8.50;99.90
11764;DHT22;5939;56.522;14.950;2023-04-01T14:41:28;8.40;99.90
11764;DHT22;5939;56.522;14.950;2023-04-01T14:49:43;8.30;99.90
11764;DHT22;5939;56.522;14.950;2023-04-01T14:52:35;8.30;99.90
11764;DHT22;5939;56.522;14.950;2023-04-01T14:55:15;8.20;99.90
11764;DHT22;5939;56.522;14.950;2023-04-01T14:57:58;8.20;99.90
11764;DHT22;5939;56.522;14.950;2023-04-01T15:00:25;8.10;99.90
11764;DHT22;5939;56.522;14.950;2023-04-01T15:02:58;8.10;99.90
11764;DHT22;5939;56.522;14.950;2023-04-01T15:05:55;8.10;99.90
11764;DHT22;5939;56.522;14.950;2023-04-01T15:08:29;8.00;99.90
11764;DHT22;5939;56.522;14.950;2023-04-01T15:24:22;7.80;99.90
11764;DHT22;5939;56.522;14.950;2023-04-01T15:27:20;7.80;99.90
11764;DHT22;5939;56.522;14.950;2023-04-01T15:39:57;7.60;99.90
11764;DHT22;5939;56.522;14.950;2023-04-01T15:48:01;7.50;99.90
11764;DHT22;5939;56.522;14.950;2023-04-01T15:50:43;7.50;99.90
11764;DHT22;5939;56.522;14.950;2023-04-01T15:53:24;7.40;99.90
11764;DHT22;5939;56.522;14.950;2023-04-01T15:56:16;7.40;99.90
11764;DHT22;5939;56.522;14.950;2023-04-01T16:07:21;7.30;99.90
11764;DHT22;5939;56.522;14.950;2023-04-01T16:21:27;7.10;99.90
11764;DHT22;5939;56.522;14.950;2023-04-01T16:24:00;7.10;99.90
11764;DHT22;5939;56.522;14.950;2023-04-01T16:29:52;7.00;99.90
11764;DHT22;5939;56.522;14.950;2023-04-01T16:32:38;7.00;99.90
11764;DHT22;5939;56.522;14.950;2023-04-01T16:37:59;6.90;99.90
11764;DHT22;5939;56.522;14.950;2023-04-01T16:40:57;6.90;99.90
11764;DHT22;5939;56.522;14.950;2023-04-01T16:54:45;6.70;99.90
11764;DHT22;5939;56.522;14.950;2023-04-01T17:02:31;6.70;99.90
11764;DHT22;5939;56.522;14.950;2023-04-01T17:05:03;6.60;99.90
11764;DHT22;5939;56.522;14.950;2023-04-01T17:10:31;6.60;99.90
11764;DHT22;5939;56.522;14.950;2023-04-01T17:13:30;6.60;99.90
11764;DHT22;5939;56.522;14.950;2023-04-01T17:29:37;6.40;99.90
11764;DHT22;5939;56.522;14.950;2023-04-01T17:35:19;6.40;99.90
11764;DHT22;5939;56.522;14.950;2023-04-01T17:37:59;6.30;99.90
11764;DHT22;5939;56.522;14.950;2023-04-01T17:41:02;6.30;99.90
11764;DHT22;5939;56.522;14.950;2023-04-01T17:57:45;6.10;99.90
11764;DHT22;5939;56.522;14.950;2023-04-01T18:05:29;6.10;99.90
11764;DHT22;5939;56.522;14.950;2023-04-01T18:08:12;6.00;99.90
11764;DHT22;5939;56.522;14.950;2023-04-01T18:16:49;5.90;99.90
11764;DHT22;5939;56.522;14.950;2023-04-01T18:21:55;5.90;99.90
11764;DHT22;5939;56.522;14.950;2023-04-01T18:24:32;5.90;99.90
11764;DHT22;5939;56.522;14.950;2023-04-01T18:27:18;5.80;99.90
11764;DHT22;5939;56.522;14.950;2023-04-01T18:29:51;5.80;99.90
11764;DHT22;5939;56.522;14.950;2023-04-01T18:33:01;5.80;99.90
11764;DHT22;5939;56.522;14.950;2023-04-01T18:35:49;5.80;99.90
11764;DHT22;5939;56.522;14.950;2023-04-01T18:38:35;5.70;99.90
11764;DHT22;5939;56.522;14.950;2023-04-01T18:41:34;5.70;99.90
11764;DHT22;5939;56.522;14.950;2023-04-01T18:44:27;5.70;99.90
11764;DHT22;5939;56.522;14.950;2023-04-01T18:52:41;5.60;99.90
11764;DHT22;5939;56.522;14.950;2023-04-01T18:57:46;5.60;99.90
11764;DHT22;5939;56.522;14.950;2023-04-01T19:00:32;5.50;99.90
11764;DHT22;5939;56.522;14.950;2023-04-01T19:05:38;5.50;99.90
11764;DHT22;5939;56.522;14.950;2023-04-01T19:08:19;5.50;99.90
11764;DHT22;5939;56.522;14.950;2023-04-01T19:11:18;5.50;99.90
11764;DHT22;5939;56.522;14.950;2023-04-01T19:14:02;5.40;99.90
11764;DHT22;5939;56.522;14.950;2023-04-01T19:17:06;5.40;99.90
11764;DHT22;5939;56.522;14.950;2023-04-01T19:20:24;5.40;99.90
11764;DHT22;5939;56.522;14.950;2023-04-01T19:25:51;5.30;99.90
11764;DHT22;5939;56.522;14.950;2023-04-01T19:41:46;5.20;99.90
11764;DHT22;5939;56.522;14.950;2023-04-01T19:52:41;5.10;99.90
11764;DHT22;5939;56.522;14.950;2023-04-01T19:58:05;5.10;99.90
11764;DHT22;5939;56.522;14.950;2023-04-01T20:00:37;5.10;99.90
11764;DHT22;5939;56.522;14.950;2023-04-01T20:08:45;5.00;99.90
11764;DHT22;5939;56.522;14.950;2023-04-01T20:11:34;5.00;99.90
11764;DHT22;5939;56.522;14.950;2023-04-01T20:14:26;5.00;99.90
11764;DHT22;5939;56.522;14.950;2023-04-01T20:17:19;5.00;99.90
11764;DHT22;5939;56.522;14.950;2023-04-01T20:19:58;5.00;99.90
11764;DHT22;5939;56.522;14.950;2023-04-01T20:25:16;4.90;99.90
11764;DHT22;5939;56.522;14.950;2023-04-01T20:27:58;4.90;99.90
11764;DHT22;5939;56.522;14.950;2023-04-01T20:35:46;4.80;99.90
11764;DHT22;5939;56.522;14.950;2023-04-01T20:44:14;4.90;99.90
11764;DHT22;5939;56.522;14.950;2023-04-01T20:46:48;4.80;99.90
11764;DHT22;5939;56.522;14.950;2023-04-01T20:49:39;4.80;99.90
11764;DHT22;5939;56.522;14.950;2023-04-01T20:52:23;4.80;99.90
11764;DHT22;5939;56.522;14.950;2023-04-01T20:55:28;4.80;99.90
11764;DHT22;5939;56.522;14.950;2023-04-01T21:03:38;4.70;99.90
11764;DHT22;5939;56.522;14.950;2023-04-01T21:11:35;4.70;99.90
11764;DHT22;5939;56.522;14.950;2023-04-01T21:14:34;4.70;99.90
11764;DHT22;5939;56.522;14.950;2023-04-01T21:20:27;4.60;99.90
11764;DHT22;5939;56.522;14.950;2023-04-01T21:37:44;4.50;99.90
11764;DHT22;5939;56.522;14.950;2023-04-01T21:48:49;4.50;99.90
11764;DHT22;5939;56.522;14.950;2023-04-01T21:51:33;4.40;99.90
11764;DHT22;5939;56.522;14.950;2023-04-01T22:08:41;4.30;99.90
11764;DHT22;5939;56.522;14.950;2023-04-01T22:13:59;4.30;99.90
11764;DHT22;5939;56.522;14.950;2023-04-01T22:24:29;4.20;99.90
11764;DHT22;5939;56.522;14.950;2023-04-01T22:27:07;4.20;99.90
11764;DHT22;5939;56.522;14.950;2023-04-01T22:32:58;4.20;99.90
11764;DHT22;5939;56.522;14.950;2023-04-01T22:35:17;4.10;99.90
11764;DHT22;5939;56.522;14.950;2023-04-01T22:40:25;4.20;99.90
11764;DHT22;5939;56.522;14.950;2023-04-01T22:42:57;4.10;99.90
11764;DHT22;5939;56.522;14.950;2023-04-01T22:45:43;4.10;99.90
11764;DHT22;5939;56.522;14.950;2023-04-01T22:48:32;4.10;99.90
11764;DHT22;5939;56.522;14.950;2023-04-01T22:59:23;4.00;99.90
11764;DHT22;5939;56.522;14.950;2023-04-01T23:01:55;4.00;99.90
11764;DHT22;5939;56.522;14.950;2023-04-01T23:04:24;4.00;99.90
11764;DHT22;5939;56.522;14.950;2023-04-01T23:06:57;4.00;99.90
11764;DHT22;5939;56.522;14.950;2023-04-01T23:09:36;4.00;99.90
11764;DHT22;5939;56.522;14.950;2023-04-01T23:12:05;4.00;99.90
11764;DHT22;5939;56.522;14.950;2023-04-01T23:14:51;3.90;99.90
11764;DHT22;5939;56.522;14.950;2023-04-01T23:17:46;3.90;99.90
11764;DHT22;5939;56.522;14.950;2023-04-01T23:20:39;3.90;99.90
11764;DHT22;5939;56.522;14.950;2023-04-01T23:23:29;3.90;99.90
11764;DHT22;5939;56.522;14.950;2023-04-01T23:28:57;3.90;99.90
11764;DHT22;5939;56.522;14.950;2023-04-01T23:31:40;3.90;99.90
11764;DHT22;5939;56.522;14.950;2023-04-01T23:36:46;3.90;99.90
11764;DHT22;5939;56.522;14.950;2023-04-01T23:39:29;3.80;99.90
11764;DHT22;5939;56.522;14.950;2023-04-01T23:44:43;3.80;99.90
11764;DHT22;5939;56.522;14.950;2023-04-01T23:47:16;3.80;99.90
11764;DHT22;5939;56.522;14.950;2023-04-01T23:49:46;3.80;99.90
11764;DHT22;5939;56.522;14.950;2023-04-01T23:52:25;3.70;99.90
11764;DHT22;5939;56.522;14.950;2023-04-01T23:55:38;3.70;99.90
